sensor_id;sensor_type;location;lat;lon;timestamp;pressure;altitude;pressure_sealevel;temperature
65290;BMP180;51893;59.754;10.110;2023-07-20T00:00:04;100423.20;;;13.52
65290;BMP180;51893;59.754;10.110;2023-07-20T00:03:10;100423.60;;;13.50
65290;BMP180;51893;59.754;10.110;2023-07-20T00:05:40;100420.20;;;13.50
65290;BMP180;51893;59.754;10.110;2023-07-20T00:08:08;100419.40;;;13.50
65290;BMP180;51893;59.754;10.110;2023-07-20T00:10:36;100420.60;;;13.50
65290;BMP180;51893;59.754;10.110;2023-07-20T00:13:05;100420.60;;;13.50
65290;BMP180;51893;59.754;10.110;2023-07-20T00:15:34;100417.60;;;13.50
65290;BMP180;51893;59.754;10.110;2023-07-20T00:18:01;100419.00;;;13.50
65290;BMP180;51893;59.754;10.110;2023-07-20T00:20:30;100421.00;;;13.50
65290;BMP180;51893;59.754;10.110;2023-07-20T00:22:58;100420.00;;;13.50
65290;BMP180;51893;59.754;10.110;2023-07-20T00:25:26;100416.20;;;13.40
65290;BMP180;51893;59.754;10.110;2023-07-20T00:27:54;100415.20;;;13.40
65290;BMP180;51893;59.754;10.110;2023-07-20T00:30:23;100414.60;;;13.40
65290;BMP180;51893;59.754;10.110;2023-07-20T00:32:51;100415.40;;;13.32
65290;BMP180;51893;59.754;10.110;2023-07-20T00:35:21;100412.40;;;13.30
65290;BMP180;51893;59.754;10.110;2023-07-20T00:37:50;100412.60;;;13.30
65290;BMP180;51893;59.754;10.110;2023-07-20T00:40:18;100414.60;;;13.20
65290;BMP180;51893;59.754;10.110;2023-07-20T00:42:46;100409.00;;;13.20
65290;BMP180;51893;59.754;10.110;2023-07-20T00:45:15;100412.60;;;13.20
65290;BMP180;51893;59.754;10.110;2023-07-20T00:47:44;100415.40;;;13.12
65290;BMP180;51893;59.754;10.110;2023-07-20T00:50:12;100414.00;;;13.10
65290;BMP180;51893;59.754;10.110;2023-07-20T00:52:41;100416.00;;;13.00
65290;BMP180;51893;59.754;10.110;2023-07-20T00:55:10;100413.00;;;13.00
65290;BMP180;51893;59.754;10.110;2023-07-20T00:57:39;100410.60;;;13.00
65290;BMP180;51893;59.754;10.110;2023-07-20T01:00:07;100414.60;;;13.00
65290;BMP180;51893;59.754;10.110;2023-07-20T01:02:37;100414.40;;;13.10
65290;BMP180;51893;59.754;10.110;2023-07-20T01:05:07;100414.40;;;13.10
65290;BMP180;51893;59.754;10.110;2023-07-20T01:07:43;100407.00;;;13.00
65290;BMP180;51893;59.754;10.110;2023-07-20T01:10:35;100407.40;;;13.00
65290;BMP180;51893;59.754;10.110;2023-07-20T01:13:07;100406.00;;;12.92
65290;BMP180;51893;59.754;10.110;2023-07-20T01:15:36;100403.60;;;12.90
65290;BMP180;51893;59.754;10.110;2023-07-20T01:18:04;100401.00;;;12.90
65290;BMP180;51893;59.754;10.110;2023-07-20T01:20:34;100403.60;;;12.90
65290;BMP180;51893;59.754;10.110;2023-07-20T01:26:34;100401.20;;;12.84
65290;BMP180;51893;59.754;10.110;2023-07-20T01:29:55;100399.40;;;12.80
65290;BMP180;51893;59.754;10.110;2023-07-20T01:32:24;100403.20;;;12.70
65290;BMP180;51893;59.754;10.110;2023-07-20T01:34:56;100401.80;;;12.70
65290;BMP180;51893;59.754;10.110;2023-07-20T01:37:27;100403.20;;;12.60
65290;BMP180;51893;59.754;10.110;2023-07-20T01:39:59;100396.00;;;12.60
65290;BMP180;51893;59.754;10.110;2023-07-20T01:42:29;100397.00;;;12.60
65290;BMP180;51893;59.754;10.110;2023-07-20T01:44:57;100397.80;;;12.52
65290;BMP180;51893;59.754;10.110;2023-07-20T01:47:25;100398.40;;;12.60
65290;BMP180;51893;59.754;10.110;2023-07-20T01:49:53;100400.80;;;12.60
65290;BMP180;51893;59.754;10.110;2023-07-20T01:52:21;100399.00;;;12.60
65290;BMP180;51893;59.754;10.110;2023-07-20T01:54:48;100399.80;;;12.60
65290;BMP180;51893;59.754;10.110;2023-07-20T01:57:17;100402.00;;;12.60
65290;BMP180;51893;59.754;10.110;2023-07-20T01:59:45;100400.40;;;12.60
65290;BMP180;51893;59.754;10.110;2023-07-20T02:02:14;100395.40;;;12.60
65290;BMP180;51893;59.754;10.110;2023-07-20T02:04:43;100398.00;;;12.56
65290;BMP180;51893;59.754;10.110;2023-07-20T02:07:12;100393.00;;;12.50
65290;BMP180;51893;59.754;10.110;2023-07-20T02:09:40;100387.20;;;12.50
65290;BMP180;51893;59.754;10.110;2023-07-20T02:12:09;100389.80;;;12.50
65290;BMP180;51893;59.754;10.110;2023-07-20T02:14:36;100391.40;;;12.50
65290;BMP180;51893;59.754;10.110;2023-07-20T02:17:05;100384.60;;;12.42
65290;BMP180;51893;59.754;10.110;2023-07-20T02:19:33;100384.80;;;12.40
65290;BMP180;51893;59.754;10.110;2023-07-20T02:22:02;100381.60;;;12.50
65290;BMP180;51893;59.754;10.110;2023-07-20T02:24:30;100381.00;;;12.50
65290;BMP180;51893;59.754;10.110;2023-07-20T02:26:58;100381.00;;;12.50
65290;BMP180;51893;59.754;10.110;2023-07-20T02:29:26;100375.40;;;12.50
65290;BMP180;51893;59.754;10.110;2023-07-20T02:31:55;100376.00;;;12.50
65290;BMP180;51893;59.754;10.110;2023-07-20T02:34:23;100377.60;;;12.50
65290;BMP180;51893;59.754;10.110;2023-07-20T02:36:51;100382.60;;;12.50
65290;BMP180;51893;59.754;10.110;2023-07-20T02:39:19;100373.00;;;12.50
65290;BMP180;51893;59.754;10.110;2023-07-20T02:41:48;100379.20;;;12.50
65290;BMP180;51893;59.754;10.110;2023-07-20T02:44:15;100376.60;;;12.46
65290;BMP180;51893;59.754;10.110;2023-07-20T02:46:44;100375.00;;;12.40
65290;BMP180;51893;59.754;10.110;2023-07-20T02:49:12;100374.40;;;12.40
65290;BMP180;51893;59.754;10.110;2023-07-20T02:51:41;100378.40;;;12.38
65290;BMP180;51893;59.754;10.110;2023-07-20T02:54:09;100371.60;;;12.30
65290;BMP180;51893;59.754;10.110;2023-07-20T02:56:38;100377.20;;;12.30
65290;BMP180;51893;59.754;10.110;2023-07-20T02:59:05;100377.80;;;12.30
65290;BMP180;51893;59.754;10.110;2023-07-20T03:01:33;100373.00;;;12.30
65290;BMP180;51893;59.754;10.110;2023-07-20T03:04:02;100376.00;;;12.30
65290;BMP180;51893;59.754;10.110;2023-07-20T03:06:34;100377.40;;;12.20
65290;BMP180;51893;59.754;10.110;2023-07-20T03:09:04;100376.60;;;12.20
65290;BMP180;51893;59.754;10.110;2023-07-20T03:11:34;100377.80;;;12.20
65290;BMP180;51893;59.754;10.110;2023-07-20T03:14:02;100376.40;;;12.20
65290;BMP180;51893;59.754;10.110;2023-07-20T03:16:30;100372.60;;;12.16
65290;BMP180;51893;59.754;10.110;2023-07-20T03:19:00;100373.80;;;12.10
65290;BMP180;51893;59.754;10.110;2023-07-20T03:21:29;100376.60;;;12.10
65290;BMP180;51893;59.754;10.110;2023-07-20T03:23:57;100375.20;;;12.18
65290;BMP180;51893;59.754;10.110;2023-07-20T03:26:25;100378.20;;;12.10
65290;BMP180;51893;59.754;10.110;2023-07-20T03:28:53;100376.00;;;12.10
65290;BMP180;51893;59.754;10.110;2023-07-20T03:31:22;100371.20;;;12.10
65290;BMP180;51893;59.754;10.110;2023-07-20T03:33:50;100368.60;;;12.04
65290;BMP180;51893;59.754;10.110;2023-07-20T03:36:18;100373.40;;;12.00
65290;BMP180;51893;59.754;10.110;2023-07-20T03:38:46;100381.00;;;12.00
65290;BMP180;51893;59.754;10.110;2023-07-20T03:41:14;100376.40;;;12.00
65290;BMP180;51893;59.754;10.110;2023-07-20T03:43:44;100376.80;;;12.00
65290;BMP180;51893;59.754;10.110;2023-07-20T03:46:12;100371.80;;;11.98
65290;BMP180;51893;59.754;10.110;2023-07-20T03:48:40;100372.80;;;11.92
65290;BMP180;51893;59.754;10.110;2023-07-20T03:51:08;100374.00;;;11.90
65290;BMP180;51893;59.754;10.110;2023-07-20T03:53:36;100373.20;;;11.90
65290;BMP180;51893;59.754;10.110;2023-07-20T03:56:04;100368.80;;;11.86
65290;BMP180;51893;59.754;10.110;2023-07-20T03:58:33;100368.80;;;11.90
65290;BMP180;51893;59.754;10.110;2023-07-20T04:01:01;100362.20;;;11.90
65290;BMP180;51893;59.754;10.110;2023-07-20T04:03:29;100361.20;;;12.00
65290;BMP180;51893;59.754;10.110;2023-07-20T04:05:58;100357.20;;;12.06
65290;BMP180;51893;59.754;10.110;2023-07-20T04:08:31;100358.20;;;12.10
65290;BMP180;51893;59.754;10.110;2023-07-20T04:11:02;100363.40;;;12.20
65290;BMP180;51893;59.754;10.110;2023-07-20T04:13:30;100365.80;;;12.20
65290;BMP180;51893;59.754;10.110;2023-07-20T04:16:02;100364.00;;;12.20
65290;BMP180;51893;59.754;10.110;2023-07-20T04:18:30;100365.60;;;12.30
65290;BMP180;51893;59.754;10.110;2023-07-20T04:20:58;100363.40;;;12.34
65290;BMP180;51893;59.754;10.110;2023-07-20T04:23:26;100361.80;;;12.40
65290;BMP180;51893;59.754;10.110;2023-07-20T04:25:54;100360.20;;;12.40
65290;BMP180;51893;59.754;10.110;2023-07-20T04:28:22;100363.40;;;12.50
65290;BMP180;51893;59.754;10.110;2023-07-20T04:30:50;100356.00;;;12.60
65290;BMP180;51893;59.754;10.110;2023-07-20T04:33:19;100361.20;;;12.62
65290;BMP180;51893;59.754;10.110;2023-07-20T04:35:54;100359.00;;;12.70
65290;BMP180;51893;59.754;10.110;2023-07-20T04:38:22;100362.80;;;12.70
65290;BMP180;51893;59.754;10.110;2023-07-20T04:40:51;100357.20;;;12.76
65290;BMP180;51893;59.754;10.110;2023-07-20T04:43:19;100364.00;;;12.80
65290;BMP180;51893;59.754;10.110;2023-07-20T04:45:48;100364.80;;;12.80
65290;BMP180;51893;59.754;10.110;2023-07-20T04:48:17;100363.60;;;12.80
65290;BMP180;51893;59.754;10.110;2023-07-20T04:50:46;100368.00;;;12.80
65290;BMP180;51893;59.754;10.110;2023-07-20T04:53:14;100366.00;;;12.80
65290;BMP180;51893;59.754;10.110;2023-07-20T04:55:49;100367.80;;;12.82
65290;BMP180;51893;59.754;10.110;2023-07-20T04:58:22;100363.40;;;12.90
65290;BMP180;51893;59.754;10.110;2023-07-20T05:00:51;100365.60;;;13.00
65290;BMP180;51893;59.754;10.110;2023-07-20T05:03:19;100364.40;;;13.00
65290;BMP180;51893;59.754;10.110;2023-07-20T05:05:47;100372.40;;;13.10
65290;BMP180;51893;59.754;10.110;2023-07-20T05:08:17;100371.80;;;13.10
65290;BMP180;51893;59.754;10.110;2023-07-20T05:10:49;100371.20;;;13.20
65290;BMP180;51893;59.754;10.110;2023-07-20T05:13:18;100375.40;;;13.28
65290;BMP180;51893;59.754;10.110;2023-07-20T05:15:46;100373.40;;;13.40
65290;BMP180;51893;59.754;10.110;2023-07-20T05:18:17;100373.60;;;13.48
65290;BMP180;51893;59.754;10.110;2023-07-20T05:20:48;100370.20;;;13.50
65290;BMP180;51893;59.754;10.110;2023-07-20T05:23:19;100367.60;;;13.60
65290;BMP180;51893;59.754;10.110;2023-07-20T05:25:58;100358.00;;;13.70
65290;BMP180;51893;59.754;10.110;2023-07-20T05:28:27;100366.00;;;13.82
65290;BMP180;51893;59.754;10.110;2023-07-20T05:30:55;100364.40;;;13.94
65290;BMP180;51893;59.754;10.110;2023-07-20T05:33:25;100361.20;;;14.10
65290;BMP180;51893;59.754;10.110;2023-07-20T05:35:53;100356.00;;;14.20
65290;BMP180;51893;59.754;10.110;2023-07-20T05:38:21;100358.00;;;14.20
65290;BMP180;51893;59.754;10.110;2023-07-20T05:40:49;100354.20;;;14.30
65290;BMP180;51893;59.754;10.110;2023-07-20T05:43:17;100360.00;;;14.40
65290;BMP180;51893;59.754;10.110;2023-07-20T05:45:45;100361.80;;;14.40
65290;BMP180;51893;59.754;10.110;2023-07-20T05:48:16;100364.20;;;14.40
65290;BMP180;51893;59.754;10.110;2023-07-20T05:50:44;100367.00;;;14.50
65290;BMP180;51893;59.754;10.110;2023-07-20T05:53:12;100372.40;;;14.50
65290;BMP180;51893;59.754;10.110;2023-07-20T05:55:40;100371.00;;;14.50
65290;BMP180;51893;59.754;10.110;2023-07-20T05:58:08;100372.20;;;14.56
65290;BMP180;51893;59.754;10.110;2023-07-20T06:00:36;100376.60;;;14.60
65290;BMP180;51893;59.754;10.110;2023-07-20T06:03:04;100377.00;;;14.60
65290;BMP180;51893;59.754;10.110;2023-07-20T06:05:32;100382.60;;;14.60
65290;BMP180;51893;59.754;10.110;2023-07-20T06:08:00;100379.80;;;14.60
65290;BMP180;51893;59.754;10.110;2023-07-20T06:10:29;100387.40;;;14.62
65290;BMP180;51893;59.754;10.110;2023-07-20T06:12:57;100382.40;;;14.62
65290;BMP180;51893;59.754;10.110;2023-07-20T06:15:28;100384.80;;;14.70
65290;BMP180;51893;59.754;10.110;2023-07-20T06:17:57;100389.00;;;14.70
65290;BMP180;51893;59.754;10.110;2023-07-20T06:20:26;100389.40;;;14.70
65290;BMP180;51893;59.754;10.110;2023-07-20T06:22:54;100389.00;;;14.70
65290;BMP180;51893;59.754;10.110;2023-07-20T06:25:26;100389.20;;;14.70
65290;BMP180;51893;59.754;10.110;2023-07-20T06:27:56;100390.60;;;14.76
65290;BMP180;51893;59.754;10.110;2023-07-20T06:30:24;100392.60;;;14.78
65290;BMP180;51893;59.754;10.110;2023-07-20T06:32:58;100393.40;;;14.80
65290;BMP180;51893;59.754;10.110;2023-07-20T06:35:27;100389.00;;;14.80
65290;BMP180;51893;59.754;10.110;2023-07-20T06:37:55;100389.20;;;14.80
65290;BMP180;51893;59.754;10.110;2023-07-20T06:40:23;100391.60;;;14.90
65290;BMP180;51893;59.754;10.110;2023-07-20T06:42:54;100388.80;;;14.98
65290;BMP180;51893;59.754;10.110;2023-07-20T06:45:25;100390.40;;;15.06
65290;BMP180;51893;59.754;10.110;2023-07-20T06:47:54;100390.60;;;15.20
65290;BMP180;51893;59.754;10.110;2023-07-20T06:50:23;100390.40;;;15.40
65290;BMP180;51893;59.754;10.110;2023-07-20T06:52:54;100393.00;;;15.50
65290;BMP180;51893;59.754;10.110;2023-07-20T06:55:26;100392.20;;;15.60
65290;BMP180;51893;59.754;10.110;2023-07-20T06:57:59;100390.60;;;15.78
65290;BMP180;51893;59.754;10.110;2023-07-20T07:00:27;100392.60;;;15.90
65290;BMP180;51893;59.754;10.110;2023-07-20T07:02:55;100386.60;;;16.08
65290;BMP180;51893;59.754;10.110;2023-07-20T07:05:25;100388.80;;;16.28
65290;BMP180;51893;59.754;10.110;2023-07-20T07:08:07;100393.00;;;16.40
65290;BMP180;51893;59.754;10.110;2023-07-20T07:10:36;100390.20;;;16.40
65290;BMP180;51893;59.754;10.110;2023-07-20T07:13:04;100386.60;;;16.50
65290;BMP180;51893;59.754;10.110;2023-07-20T07:15:33;100388.00;;;16.60
65290;BMP180;51893;59.754;10.110;2023-07-20T07:18:02;100389.40;;;16.74
65290;BMP180;51893;59.754;10.110;2023-07-20T07:20:31;100391.20;;;16.90
65290;BMP180;51893;59.754;10.110;2023-07-20T07:23:00;100394.20;;;17.00
65290;BMP180;51893;59.754;10.110;2023-07-20T07:25:28;100392.60;;;17.10
65290;BMP180;51893;59.754;10.110;2023-07-20T07:27:58;100397.00;;;17.20
65290;BMP180;51893;59.754;10.110;2023-07-20T07:30:26;100399.00;;;17.20
65290;BMP180;51893;59.754;10.110;2023-07-20T07:32:54;100406.20;;;17.28
65290;BMP180;51893;59.754;10.110;2023-07-20T07:35:22;100407.20;;;17.30
65290;BMP180;51893;59.754;10.110;2023-07-20T07:37:50;100405.80;;;17.30
65290;BMP180;51893;59.754;10.110;2023-07-20T07:40:38;100406.80;;;17.40
65290;BMP180;51893;59.754;10.110;2023-07-20T07:43:07;100406.60;;;17.50
65290;BMP180;51893;59.754;10.110;2023-07-20T07:45:36;100410.80;;;17.50
65290;BMP180;51893;59.754;10.110;2023-07-20T07:48:07;100409.80;;;17.40
65290;BMP180;51893;59.754;10.110;2023-07-20T07:50:36;100412.80;;;17.50
65290;BMP180;51893;59.754;10.110;2023-07-20T07:53:05;100411.60;;;17.50
65290;BMP180;51893;59.754;10.110;2023-07-20T07:55:33;100410.80;;;17.50
65290;BMP180;51893;59.754;10.110;2023-07-20T07:58:01;100409.80;;;17.56
65290;BMP180;51893;59.754;10.110;2023-07-20T08:00:30;100407.60;;;17.60
65290;BMP180;51893;59.754;10.110;2023-07-20T08:02:58;100406.20;;;17.68
65290;BMP180;51893;59.754;10.110;2023-07-20T08:05:26;100407.40;;;17.74
65290;BMP180;51893;59.754;10.110;2023-07-20T08:07:54;100406.20;;;17.70
65290;BMP180;51893;59.754;10.110;2023-07-20T08:10:22;100402.00;;;17.80
65290;BMP180;51893;59.754;10.110;2023-07-20T08:12:51;100405.80;;;17.80
65290;BMP180;51893;59.754;10.110;2023-07-20T08:15:21;100404.00;;;17.90
65290;BMP180;51893;59.754;10.110;2023-07-20T08:17:49;100406.00;;;17.96
65290;BMP180;51893;59.754;10.110;2023-07-20T08:20:19;100406.40;;;18.00
65290;BMP180;51893;59.754;10.110;2023-07-20T08:22:55;100406.60;;;18.10
65290;BMP180;51893;59.754;10.110;2023-07-20T08:25:24;100404.00;;;18.16
65290;BMP180;51893;59.754;10.110;2023-07-20T08:27:52;100409.80;;;18.20
65290;BMP180;51893;59.754;10.110;2023-07-20T08:30:21;100412.60;;;18.20
65290;BMP180;51893;59.754;10.110;2023-07-20T08:32:51;100414.80;;;18.30
65290;BMP180;51893;59.754;10.110;2023-07-20T08:35:19;100414.20;;;18.38
65290;BMP180;51893;59.754;10.110;2023-07-20T08:37:49;100417.20;;;18.50
65290;BMP180;51893;59.754;10.110;2023-07-20T08:40:18;100415.00;;;18.60
65290;BMP180;51893;59.754;10.110;2023-07-20T08:42:46;100418.20;;;18.70
65290;BMP180;51893;59.754;10.110;2023-07-20T08:45:17;100416.20;;;18.78
65290;BMP180;51893;59.754;10.110;2023-07-20T08:47:48;100415.00;;;18.90
65290;BMP180;51893;59.754;10.110;2023-07-20T08:50:18;100415.00;;;19.00
65290;BMP180;51893;59.754;10.110;2023-07-20T08:52:50;100415.80;;;19.10
65290;BMP180;51893;59.754;10.110;2023-07-20T08:55:21;100421.80;;;19.12
65290;BMP180;51893;59.754;10.110;2023-07-20T08:57:57;100425.20;;;19.10
65290;BMP180;51893;59.754;10.110;2023-07-20T09:00:26;100425.20;;;19.10
65290;BMP180;51893;59.754;10.110;2023-07-20T09:02:57;100424.00;;;19.20
65290;BMP180;51893;59.754;10.110;2023-07-20T09:05:30;100421.00;;;19.30
65290;BMP180;51893;59.754;10.110;2023-07-20T09:08:01;100425.40;;;19.30
65290;BMP180;51893;59.754;10.110;2023-07-20T09:10:32;100420.00;;;19.40
65290;BMP180;51893;59.754;10.110;2023-07-20T09:13:01;100420.60;;;19.50
65290;BMP180;51893;59.754;10.110;2023-07-20T09:15:30;100425.20;;;19.50
65290;BMP180;51893;59.754;10.110;2023-07-20T09:18:02;100428.20;;;19.50
65290;BMP180;51893;59.754;10.110;2023-07-20T09:20:36;100424.60;;;19.60
65290;BMP180;51893;59.754;10.110;2023-07-20T09:23:05;100437.20;;;19.74
65290;BMP180;51893;59.754;10.110;2023-07-20T09:25:36;100442.40;;;19.80
65290;BMP180;51893;59.754;10.110;2023-07-20T09:28:04;100442.60;;;19.80
65290;BMP180;51893;59.754;10.110;2023-07-20T09:30:33;100443.00;;;19.70
65290;BMP180;51893;59.754;10.110;2023-07-20T09:33:02;100434.40;;;19.80
65290;BMP180;51893;59.754;10.110;2023-07-20T09:35:30;100430.80;;;19.90
65290;BMP180;51893;59.754;10.110;2023-07-20T09:38:10;100424.20;;;20.00
65290;BMP180;51893;59.754;10.110;2023-07-20T09:40:42;100424.80;;;20.16
65290;BMP180;51893;59.754;10.110;2023-07-20T09:43:16;100430.40;;;20.30
65290;BMP180;51893;59.754;10.110;2023-07-20T09:45:47;100433.60;;;20.38
65290;BMP180;51893;59.754;10.110;2023-07-20T09:48:24;100423.60;;;20.40
65290;BMP180;51893;59.754;10.110;2023-07-20T09:50:56;100423.40;;;20.50
65290;BMP180;51893;59.754;10.110;2023-07-20T09:53:25;100418.00;;;20.70
65290;BMP180;51893;59.754;10.110;2023-07-20T09:55:55;100425.20;;;20.80
65290;BMP180;51893;59.754;10.110;2023-07-20T09:58:26;100416.00;;;20.90
65290;BMP180;51893;59.754;10.110;2023-07-20T10:00:57;100412.80;;;21.10
65290;BMP180;51893;59.754;10.110;2023-07-20T10:03:30;100412.80;;;21.18
65290;BMP180;51893;59.754;10.110;2023-07-20T10:06:06;100406.60;;;21.10
65290;BMP180;51893;59.754;10.110;2023-07-20T10:08:41;100405.20;;;21.10
65290;BMP180;51893;59.754;10.110;2023-07-20T10:11:16;100404.00;;;21.10
65290;BMP180;51893;59.754;10.110;2023-07-20T10:13:51;100402.80;;;21.20
65290;BMP180;51893;59.754;10.110;2023-07-20T10:16:29;100401.00;;;21.20
65290;BMP180;51893;59.754;10.110;2023-07-20T10:19:11;100402.80;;;21.30
65290;BMP180;51893;59.754;10.110;2023-07-20T10:21:57;100403.80;;;21.30
65290;BMP180;51893;59.754;10.110;2023-07-20T10:24:32;100395.20;;;21.30
65290;BMP180;51893;59.754;10.110;2023-07-20T10:27:01;100396.60;;;21.60
65290;BMP180;51893;59.754;10.110;2023-07-20T10:29:30;100399.00;;;21.50
65290;BMP180;51893;59.754;10.110;2023-07-20T10:32:00;100403.60;;;21.42
65290;BMP180;51893;59.754;10.110;2023-07-20T10:34:36;100391.80;;;21.20
65290;BMP180;51893;59.754;10.110;2023-07-20T10:37:05;100395.20;;;21.20
65290;BMP180;51893;59.754;10.110;2023-07-20T10:39:33;100395.60;;;21.20
65290;BMP180;51893;59.754;10.110;2023-07-20T10:42:06;100391.80;;;21.36
65290;BMP180;51893;59.754;10.110;2023-07-20T10:44:40;100395.80;;;21.46
65290;BMP180;51893;59.754;10.110;2023-07-20T10:47:12;100397.80;;;21.40
65290;BMP180;51893;59.754;10.110;2023-07-20T10:49:59;100395.80;;;21.40
65290;BMP180;51893;59.754;10.110;2023-07-20T10:53:30;100394.60;;;21.30
65290;BMP180;51893;59.754;10.110;2023-07-20T10:56:12;100391.80;;;21.12
65290;BMP180;51893;59.754;10.110;2023-07-20T10:58:42;100392.00;;;21.10
65290;BMP180;51893;59.754;10.110;2023-07-20T11:01:16;100387.00;;;21.10
65290;BMP180;51893;59.754;10.110;2023-07-20T11:03:50;100382.80;;;21.28
65290;BMP180;51893;59.754;10.110;2023-07-20T11:09:10;100382.60;;;21.60
65290;BMP180;51893;59.754;10.110;2023-07-20T11:11:41;100375.60;;;21.70
65290;BMP180;51893;59.754;10.110;2023-07-20T11:14:24;100381.00;;;22.00
65290;BMP180;51893;59.754;10.110;2023-07-20T11:16:53;100371.00;;;22.20
65290;BMP180;51893;59.754;10.110;2023-07-20T11:19:26;100373.00;;;22.38
65290;BMP180;51893;59.754;10.110;2023-07-20T11:22:00;100370.60;;;22.40
65290;BMP180;51893;59.754;10.110;2023-07-20T11:24:32;100365.40;;;22.60
65290;BMP180;51893;59.754;10.110;2023-07-20T11:27:00;100375.00;;;22.70
65290;BMP180;51893;59.754;10.110;2023-07-20T11:29:30;100376.40;;;22.60
65290;BMP180;51893;59.754;10.110;2023-07-20T11:32:02;100371.00;;;22.70
65290;BMP180;51893;59.754;10.110;2023-07-20T11:34:35;100371.40;;;22.80
65290;BMP180;51893;59.754;10.110;2023-07-20T11:37:05;100374.60;;;23.00
65290;BMP180;51893;59.754;10.110;2023-07-20T11:39:38;100377.80;;;22.90
65290;BMP180;51893;59.754;10.110;2023-07-20T11:42:08;100379.80;;;22.80
65290;BMP180;51893;59.754;10.110;2023-07-20T11:44:36;100376.00;;;22.70
65290;BMP180;51893;59.754;10.110;2023-07-20T11:47:09;100373.80;;;22.70
65290;BMP180;51893;59.754;10.110;2023-07-20T11:49:42;100376.00;;;22.90
65290;BMP180;51893;59.754;10.110;2023-07-20T11:52:15;100370.60;;;22.90
65290;BMP180;51893;59.754;10.110;2023-07-20T11:54:45;100371.40;;;22.92
65290;BMP180;51893;59.754;10.110;2023-07-20T11:57:20;100370.60;;;23.00
65290;BMP180;51893;59.754;10.110;2023-07-20T12:00:01;100373.60;;;23.00
65290;BMP180;51893;59.754;10.110;2023-07-20T12:02:32;100369.40;;;22.92
65290;BMP180;51893;59.754;10.110;2023-07-20T12:05:02;100377.00;;;23.08
65290;BMP180;51893;59.754;10.110;2023-07-20T12:07:36;100398.00;;;23.00
65290;BMP180;51893;59.754;10.110;2023-07-20T12:10:11;100407.40;;;22.42
65290;BMP180;51893;59.754;10.110;2023-07-20T12:12:42;100405.00;;;21.54
65290;BMP180;51893;59.754;10.110;2023-07-20T12:15:24;100396.60;;;20.64
65290;BMP180;51893;59.754;10.110;2023-07-20T12:18:00;100404.80;;;19.94
65290;BMP180;51893;59.754;10.110;2023-07-20T12:20:34;100413.20;;;19.50
65290;BMP180;51893;59.754;10.110;2023-07-20T12:23:11;100410.60;;;19.10
65290;BMP180;51893;59.754;10.110;2023-07-20T12:25:45;100403.20;;;18.72
65290;BMP180;51893;59.754;10.110;2023-07-20T12:28:19;100407.00;;;18.50
65290;BMP180;51893;59.754;10.110;2023-07-20T12:30:47;100403.20;;;18.30
65290;BMP180;51893;59.754;10.110;2023-07-20T12:33:24;100414.60;;;18.10
65290;BMP180;51893;59.754;10.110;2023-07-20T12:35:52;100423.20;;;18.00
65290;BMP180;51893;59.754;10.110;2023-07-20T12:38:27;100427.20;;;17.90
65290;BMP180;51893;59.754;10.110;2023-07-20T12:40:57;100411.60;;;17.80
65290;BMP180;51893;59.754;10.110;2023-07-20T12:43:25;100401.40;;;17.80
65290;BMP180;51893;59.754;10.110;2023-07-20T12:45:54;100393.60;;;17.78
65290;BMP180;51893;59.754;10.110;2023-07-20T12:48:22;100388.60;;;17.70
65290;BMP180;51893;59.754;10.110;2023-07-20T12:50:51;100388.60;;;17.70
65290;BMP180;51893;59.754;10.110;2023-07-20T12:53:20;100385.80;;;17.78
65290;BMP180;51893;59.754;10.110;2023-07-20T12:55:49;100377.20;;;17.84
65290;BMP180;51893;59.754;10.110;2023-07-20T12:58:17;100377.20;;;17.90
65290;BMP180;51893;59.754;10.110;2023-07-20T13:00:46;100372.60;;;17.96
65290;BMP180;51893;59.754;10.110;2023-07-20T13:03:13;100369.60;;;18.20
65290;BMP180;51893;59.754;10.110;2023-07-20T13:05:57;100370.40;;;18.60
65290;BMP180;51893;59.754;10.110;2023-07-20T13:08:28;100373.20;;;18.80
65290;BMP180;51893;59.754;10.110;2023-07-20T13:10:59;100376.80;;;19.02
65290;BMP180;51893;59.754;10.110;2023-07-20T13:13:28;100375.60;;;19.20
65290;BMP180;51893;59.754;10.110;2023-07-20T13:15:56;100379.40;;;19.32
65290;BMP180;51893;59.754;10.110;2023-07-20T13:18:24;100383.60;;;19.40
65290;BMP180;51893;59.754;10.110;2023-07-20T13:20:52;100384.40;;;19.40
65290;BMP180;51893;59.754;10.110;2023-07-20T13:23:20;100380.80;;;19.34
65290;BMP180;51893;59.754;10.110;2023-07-20T13:25:49;100376.80;;;19.30
65290;BMP180;51893;59.754;10.110;2023-07-20T13:28:17;100372.00;;;19.30
65290;BMP180;51893;59.754;10.110;2023-07-20T13:30:47;100374.40;;;19.30
65290;BMP180;51893;59.754;10.110;2023-07-20T13:33:15;100370.60;;;19.30
65290;BMP180;51893;59.754;10.110;2023-07-20T13:35:45;100377.80;;;19.30
65290;BMP180;51893;59.754;10.110;2023-07-20T13:38:16;100383.20;;;19.20
65290;BMP180;51893;59.754;10.110;2023-07-20T13:40:45;100387.40;;;19.10
65290;BMP180;51893;59.754;10.110;2023-07-20T13:43:15;100378.40;;;19.00
65290;BMP180;51893;59.754;10.110;2023-07-20T13:45:43;100378.60;;;18.90
65290;BMP180;51893;59.754;10.110;2023-07-20T13:48:11;100377.60;;;18.90
65290;BMP180;51893;59.754;10.110;2023-07-20T13:50:44;100366.20;;;18.90
65290;BMP180;51893;59.754;10.110;2023-07-20T13:53:26;100351.40;;;18.90
65290;BMP180;51893;59.754;10.110;2023-07-20T13:55:58;100356.80;;;18.92
65290;BMP180;51893;59.754;10.110;2023-07-20T13:58:29;100352.00;;;19.14
65290;BMP180;51893;59.754;10.110;2023-07-20T14:00:59;100354.00;;;19.30
65290;BMP180;51893;59.754;10.110;2023-07-20T14:03:27;100353.80;;;19.30
65290;BMP180;51893;59.754;10.110;2023-07-20T14:05:55;100358.80;;;19.30
65290;BMP180;51893;59.754;10.110;2023-07-20T14:08:28;100353.80;;;19.30